sensor_id;sensor_type;location;lat;lon;timestamp;pressure;altitude;pressure_sealevel;temperature;humidity
64080;BME280;51042;49.696;10.808;2023-04-28T00:00:20;98412.06;;;8.63;85.16
64080;BME280;51042;49.696;10.808;2023-04-28T00:02:45;98407.78;;;8.62;85.34
64080;BME280;51042;49.696;10.808;2023-04-28T00:05:12;98398.41;;;8.63;85.23
64080;BME280;51042;49.696;10.808;2023-04-28T00:07:38;98400.69;;;8.64;85.27
64080;BME280;51042;49.696;10.808;2023-04-28T00:10:03;98401.41;;;8.68;85.54
64080;BME280;51042;49.696;10.808;2023-04-28T00:12:29;98395.34;;;8.77;83.79
64080;BME280;51042;49.696;10.808;2023-04-28T00:14:54;98402.72;;;8.80;84.19
64080;BME280;51042;49.696;10.808;2023-04-28T00:17:19;98396.63;;;8.72;83.30
64080;BME280;51042;49.696;10.808;2023-04-28T00:19:45;98392.16;;;8.62;84.57
64080;BME280;51042;49.696;10.808;2023-04-28T00:22:10;98388.09;;;8.50;85.45
64080;BME280;51042;49.696;10.808;2023-04-28T00:24:35;98388.59;;;8.45;86.14
64080;BME280;51042;49.696;10.808;2023-04-28T00:27:01;98384.72;;;8.43;87.37
64080;BME280;51042;49.696;10.808;2023-04-28T00:29:27;98375.03;;;8.38;88.53
64080;BME280;51042;49.696;10.808;2023-04-28T00:31:53;98371.59;;;8.34;88.59
64080;BME280;51042;49.696;10.808;2023-04-28T00:34:18;98374.44;;;8.27;89.23
64080;BME280;51042;49.696;10.808;2023-04-28T00:36:43;98372.06;;;8.29;89.65
64080;BME280;51042;49.696;10.808;2023-04-28T00:39:08;98378.69;;;8.32;90.05
64080;BME280;51042;49.696;10.808;2023-04-28T00:41:34;98370.00;;;8.37;88.53
64080;BME280;51042;49.696;10.808;2023-04-28T00:43:59;98366.75;;;8.42;87.83
64080;BME280;51042;49.696;10.808;2023-04-28T00:46:32;98365.50;;;8.46;86.85
64080;BME280;51042;49.696;10.808;2023-04-28T00:48:58;98363.47;;;8.50;87.62
64080;BME280;51042;49.696;10.808;2023-04-28T00:51:23;98354.00;;;8.55;85.45
64080;BME280;51042;49.696;10.808;2023-04-28T00:53:49;98351.19;;;8.58;85.15
64080;BME280;51042;49.696;10.808;2023-04-28T00:56:15;98348.03;;;8.60;84.75
64080;BME280;51042;49.696;10.808;2023-04-28T00:58:41;98345.66;;;8.62;84.01
64080;BME280;51042;49.696;10.808;2023-04-28T01:01:07;98338.13;;;8.66;83.68
64080;BME280;51042;49.696;10.808;2023-04-28T01:03:34;98340.25;;;8.58;87.42
64080;BME280;51042;49.696;10.808;2023-04-28T01:06:03;98338.78;;;8.54;86.51
64080;BME280;51042;49.696;10.808;2023-04-28T01:08:30;98336.03;;;8.54;87.19
64080;BME280;51042;49.696;10.808;2023-04-28T01:10:56;98336.03;;;8.54;86.28
64080;BME280;51042;49.696;10.808;2023-04-28T01:13:21;98336.41;;;8.56;86.36
64080;BME280;51042;49.696;10.808;2023-04-28T01:15:47;98330.50;;;8.57;85.83
64080;BME280;51042;49.696;10.808;2023-04-28T01:18:12;98334.34;;;8.60;85.22
64080;BME280;51042;49.696;10.808;2023-04-28T01:20:40;98333.06;;;8.65;84.87
64080;BME280;51042;49.696;10.808;2023-04-28T01:23:10;98325.59;;;8.69;84.23
64080;BME280;51042;49.696;10.808;2023-04-28T01:25:36;98323.94;;;8.71;84.08
64080;BME280;51042;49.696;10.808;2023-04-28T01:28:02;98318.06;;;8.73;83.16
64080;BME280;51042;49.696;10.808;2023-04-28T01:30:27;98315.69;;;8.75;84.20
64080;BME280;51042;49.696;10.808;2023-04-28T01:32:52;98320.78;;;8.73;84.29
64080;BME280;51042;49.696;10.808;2023-04-28T01:35:18;98310.63;;;8.73;84.17
64080;BME280;51042;49.696;10.808;2023-04-28T01:37:43;98317.28;;;8.72;84.77
64080;BME280;51042;49.696;10.808;2023-04-28T01:40:08;98310.63;;;8.73;83.23
64080;BME280;51042;49.696;10.808;2023-04-28T01:42:34;98316.44;;;8.75;80.25
64080;BME280;51042;49.696;10.808;2023-04-28T01:44:59;98307.38;;;8.78;80.11
64080;BME280;51042;49.696;10.808;2023-04-28T01:47:25;98305.78;;;8.81;77.80
64080;BME280;51042;49.696;10.808;2023-04-28T01:49:50;98311.16;;;8.84;77.21
64080;BME280;51042;49.696;10.808;2023-04-28T01:52:15;98310.72;;;8.86;77.34
64080;BME280;51042;49.696;10.808;2023-04-28T01:54:43;98305.25;;;8.86;77.84
64080;BME280;51042;49.696;10.808;2023-04-28T01:57:09;98308.31;;;8.88;77.83
64080;BME280;51042;49.696;10.808;2023-04-28T01:59:34;98309.44;;;8.90;76.70
64080;BME280;51042;49.696;10.808;2023-04-28T02:01:59;98310.13;;;8.94;76.44
64080;BME280;51042;49.696;10.808;2023-04-28T02:04:25;98308.94;;;8.95;76.39
64080;BME280;51042;49.696;10.808;2023-04-28T02:06:50;98292.00;;;9.00;76.24
64080;BME280;51042;49.696;10.808;2023-04-28T02:09:16;98285.69;;;9.04;75.58
64080;BME280;51042;49.696;10.808;2023-04-28T02:11:41;98285.59;;;9.07;75.35
64080;BME280;51042;49.696;10.808;2023-04-28T02:14:06;98298.09;;;9.08;75.46
64080;BME280;51042;49.696;10.808;2023-04-28T02:16:32;98286.38;;;9.08;75.60
64080;BME280;51042;49.696;10.808;2023-04-28T02:18:57;98289.47;;;9.10;75.42
64080;BME280;51042;49.696;10.808;2023-04-28T02:21:22;98284.75;;;9.10;75.44
64080;BME280;51042;49.696;10.808;2023-04-28T02:23:48;98289.09;;;9.08;75.90
64080;BME280;51042;49.696;10.808;2023-04-28T02:26:15;98289.47;;;9.10;74.68
64080;BME280;51042;49.696;10.808;2023-04-28T02:28:41;98294.06;;;9.13;74.88
64080;BME280;51042;49.696;10.808;2023-04-28T02:31:09;98286.97;;;9.15;74.78
64080;BME280;51042;49.696;10.808;2023-04-28T02:33:36;98290.50;;;9.16;74.91
64080;BME280;51042;49.696;10.808;2023-04-28T02:36:02;98284.25;;;9.15;74.99
64080;BME280;51042;49.696;10.808;2023-04-28T02:38:28;98293.22;;;9.16;75.15
64080;BME280;51042;49.696;10.808;2023-04-28T02:40:57;98286.56;;;9.17;75.19
64080;BME280;51042;49.696;10.808;2023-04-28T02:43:27;98277.13;;;9.18;75.43
64080;BME280;51042;49.696;10.808;2023-04-28T02:45:52;98273.53;;;9.21;75.72
64080;BME280;51042;49.696;10.808;2023-04-28T02:48:18;98272.34;;;9.22;75.69
64080;BME280;51042;49.696;10.808;2023-04-28T02:50:44;98272.34;;;9.22;75.37
64080;BME280;51042;49.696;10.808;2023-04-28T02:53:12;98264.13;;;9.22;75.67
64080;BME280;51042;49.696;10.808;2023-04-28T02:55:38;98260.63;;;9.21;75.66
64080;BME280;51042;49.696;10.808;2023-04-28T02:58:03;98263.38;;;9.21;75.91
64080;BME280;51042;49.696;10.808;2023-04-28T03:00:28;98255.91;;;9.22;75.80
64080;BME280;51042;49.696;10.808;2023-04-28T03:02:54;98252.31;;;9.25;75.97
64080;BME280;51042;49.696;10.808;2023-04-28T03:05:20;98248.03;;;9.24;76.50
64080;BME280;51042;49.696;10.808;2023-04-28T03:07:45;98236.66;;;9.25;75.92
64080;BME280;51042;49.696;10.808;2023-04-28T03:10:11;98234.34;;;9.24;76.33
64080;BME280;51042;49.696;10.808;2023-04-28T03:12:36;98237.44;;;9.26;76.59
64080;BME280;51042;49.696;10.808;2023-04-28T03:15:01;98225.69;;;9.25;76.60
64080;BME280;51042;49.696;10.808;2023-04-28T03:17:27;98228.44;;;9.25;76.66
64080;BME280;51042;49.696;10.808;2023-04-28T03:19:52;98221.00;;;9.26;76.43
64080;BME280;51042;49.696;10.808;2023-04-28T03:22:17;98222.53;;;9.27;76.45
64080;BME280;51042;49.696;10.808;2023-04-28T03:24:43;98222.53;;;9.27;77.48
64080;BME280;51042;49.696;10.808;2023-04-28T03:27:08;98219.38;;;9.28;77.61
64080;BME280;51042;49.696;10.808;2023-04-28T03:29:33;98218.19;;;9.29;77.46
64080;BME280;51042;49.696;10.808;2023-04-28T03:31:59;98204.50;;;9.29;77.63
64080;BME280;51042;49.696;10.808;2023-04-28T03:34:24;98203.38;;;9.27;78.19
64080;BME280;51042;49.696;10.808;2023-04-28T03:36:49;98195.16;;;9.27;77.86
64080;BME280;51042;49.696;10.808;2023-04-28T03:39:15;98205.00;;;9.24;78.68
64080;BME280;51042;49.696;10.808;2023-04-28T03:41:40;98210.03;;;9.26;78.62
64080;BME280;51042;49.696;10.808;2023-04-28T03:44:06;98211.16;;;9.28;78.44
64080;BME280;51042;49.696;10.808;2023-04-28T03:46:31;98205.94;;;9.34;77.75
64080;BME280;51042;49.696;10.808;2023-04-28T03:48:58;98202.00;;;9.35;78.54
64080;BME280;51042;49.696;10.808;2023-04-28T03:51:24;98200.00;;;9.35;78.61
64080;BME280;51042;49.696;10.808;2023-04-28T03:53:49;98197.25;;;9.35;78.41
64080;BME280;51042;49.696;10.808;2023-04-28T03:56:15;98191.78;;;9.35;79.25
64080;BME280;51042;49.696;10.808;2023-04-28T03:58:40;98195.66;;;9.38;79.10
64080;BME280;51042;49.696;10.808;2023-04-28T04:01:06;98199.50;;;9.40;78.54
64080;BME280;51042;49.696;10.808;2023-04-28T04:03:31;98199.41;;;9.44;78.83
64080;BME280;51042;49.696;10.808;2023-04-28T04:05:57;98192.31;;;9.47;79.04
64080;BME280;51042;49.696;10.808;2023-04-28T04:08:22;98192.38;;;9.43;79.40
64080;BME280;51042;49.696;10.808;2023-04-28T04:10:48;98200.16;;;9.45;79.50
64080;BME280;51042;49.696;10.808;2023-04-28T04:13:13;98209.50;;;9.47;78.83
64080;BME280;51042;49.696;10.808;2023-04-28T04:15:38;98200.84;;;9.49;79.63
64080;BME280;51042;49.696;10.808;2023-04-28T04:18:03;98199.28;;;9.48;80.06
64080;BME280;51042;49.696;10.808;2023-04-28T04:20:29;98200.06;;;9.48;79.71
64080;BME280;51042;49.696;10.808;2023-04-28T04:22:54;98202.38;;;9.50;80.04
64080;BME280;51042;49.696;10.808;2023-04-28T04:25:19;98198.78;;;9.53;80.32
64080;BME280;51042;49.696;10.808;2023-04-28T04:27:45;98192.78;;;9.58;80.19
64080;BME280;51042;49.696;10.808;2023-04-28T04:30:10;98193.53;;;9.58;81.01
64080;BME280;51042;49.696;10.808;2023-04-28T04:32:36;98196.59;;;9.60;81.87
64080;BME280;51042;49.696;10.808;2023-04-28T04:35:01;98199.25;;;9.64;80.85
64080;BME280;51042;49.696;10.808;2023-04-28T04:37:26;98206.72;;;9.63;82.46
64080;BME280;51042;49.696;10.808;2023-04-28T04:39:52;98202.66;;;9.68;84.55
64080;BME280;51042;49.696;10.808;2023-04-28T04:42:17;98203.88;;;9.67;83.10
64080;BME280;51042;49.696;10.808;2023-04-28T04:44:42;98198.72;;;9.69;84.60
64080;BME280;51042;49.696;10.808;2023-04-28T04:47:08;98195.56;;;9.70;85.22
64080;BME280;51042;49.696;10.808;2023-04-28T04:49:33;98188.84;;;9.71;86.22
64080;BME280;51042;49.696;10.808;2023-04-28T04:51:58;98190.41;;;9.72;84.58
64080;BME280;51042;49.696;10.808;2023-04-28T04:54:25;98190.31;;;9.76;85.46
64080;BME280;51042;49.696;10.808;2023-04-28T04:56:50;98195.34;;;9.77;86.93
64080;BME280;51042;49.696;10.808;2023-04-28T04:59:16;98193.38;;;9.78;85.57
64080;BME280;51042;49.696;10.808;2023-04-28T05:01:42;98189.00;;;9.80;85.55
64080;BME280;51042;49.696;10.808;2023-04-28T05:04:07;98198.00;;;9.81;84.13
64080;BME280;51042;49.696;10.808;2023-04-28T05:06:32;98208.84;;;9.84;86.53
64080;BME280;51042;49.696;10.808;2023-04-28T05:08:58;98205.03;;;9.82;85.33
64080;BME280;51042;49.696;10.808;2023-04-28T05:11:23;98202.16;;;9.86;84.49
64080;BME280;51042;49.696;10.808;2023-04-28T05:13:48;98197.34;;;9.90;83.49
64080;BME280;51042;49.696;10.808;2023-04-28T05:16:14;98195.59;;;9.96;86.22
64080;BME280;51042;49.696;10.808;2023-04-28T05:18:39;98198.91;;;10.03;85.80
64080;BME280;51042;49.696;10.808;2023-04-28T05:21:05;98192.69;;;10.15;88.59
64080;BME280;51042;49.696;10.808;2023-04-28T05:23:30;98193.72;;;10.21;88.50
64080;BME280;51042;49.696;10.808;2023-04-28T05:25:56;98192.16;;;10.20;86.23
64080;BME280;51042;49.696;10.808;2023-04-28T05:28:21;98190.63;;;10.19;88.77
64080;BME280;51042;49.696;10.808;2023-04-28T05:30:47;98190.97;;;10.21;90.20
64080;BME280;51042;49.696;10.808;2023-04-28T05:33:12;98188.44;;;10.27;91.81
64080;BME280;51042;49.696;10.808;2023-04-28T05:35:38;98191.91;;;10.15;87.57
64080;BME280;51042;49.696;10.808;2023-04-28T05:38:03;98185.91;;;10.20;93.61
64080;BME280;51042;49.696;10.808;2023-04-28T05:40:29;98177.13;;;10.25;88.80
64080;BME280;51042;49.696;10.808;2023-04-28T05:42:54;98170.19;;;10.08;91.08
64080;BME280;51042;49.696;10.808;2023-04-28T05:45:19;98174.25;;;10.03;95.10
64080;BME280;51042;49.696;10.808;2023-04-28T05:47:45;98171.72;;;9.96;95.39
64080;BME280;51042;49.696;10.808;2023-04-28T05:50:10;98174.13;;;9.94;96.98
64080;BME280;51042;49.696;10.808;2023-04-28T05:52:36;98165.69;;;9.89;96.11
64080;BME280;51042;49.696;10.808;2023-04-28T05:55:01;98161.94;;;9.82;97.23
64080;BME280;51042;49.696;10.808;2023-04-28T05:57:26;98161.72;;;9.90;98.29
64080;BME280;51042;49.696;10.808;2023-04-28T05:59:52;98172.91;;;9.95;100.00
64080;BME280;51042;49.696;10.808;2023-04-28T06:02:17;98168.53;;;9.98;100.00
64080;BME280;51042;49.696;10.808;2023-04-28T06:04:42;98166.66;;;10.07;100.00
64080;BME280;51042;49.696;10.808;2023-04-28T06:07:08;98165.22;;;9.90;100.00
64080;BME280;51042;49.696;10.808;2023-04-28T06:09:34;98162.81;;;9.92;100.00
64080;BME280;51042;49.696;10.808;2023-04-28T06:12:00;98170.41;;;9.88;100.00
64080;BME280;51042;49.696;10.808;2023-04-28T06:14:25;98164.56;;;9.86;100.00
64080;BME280;51042;49.696;10.808;2023-04-28T06:16:50;98170.72;;;9.90;100.00
64080;BME280;51042;49.696;10.808;2023-04-28T06:19:16;98166.91;;;10.00;100.00
64080;BME280;51042;49.696;10.808;2023-04-28T06:21:43;98173.44;;;9.90;100.00
64080;BME280;51042;49.696;10.808;2023-04-28T06:24:08;98166.69;;;9.95;100.00
64080;BME280;51042;49.696;10.808;2023-04-28T06:26:34;98166.34;;;9.93;100.00
64080;BME280;51042;49.696;10.808;2023-04-28T06:28:59;98165.56;;;9.92;100.00
64080;BME280;51042;49.696;10.808;2023-04-28T06:31:24;98166.69;;;9.95;100.00
64080;BME280;51042;49.696;10.808;2023-04-28T06:33:50;98164.38;;;9.93;100.00
64080;BME280;51042;49.696;10.808;2023-04-28T06:36:15;98171.81;;;9.93;100.00
64080;BME280;51042;49.696;10.808;2023-04-28T06:38:42;98161.84;;;9.99;100.00
64080;BME280;51042;49.696;10.808;2023-04-28T06:41:08;98159.53;;;9.97;100.00
64080;BME280;51042;49.696;10.808;2023-04-28T06:43:35;98152.31;;;10.03;100.00
64080;BME280;51042;49.696;10.808;2023-04-28T06:46:00;98157.03;;;10.03;100.00
64080;BME280;51042;49.696;10.808;2023-04-28T06:48:26;98156.72;;;10.01;100.00
64080;BME280;51042;49.696;10.808;2023-04-28T06:50:51;98155.47;;;10.02;100.00
64080;BME280;51042;49.696;10.808;2023-04-28T06:53:17;98157.03;;;10.03;100.00
64080;BME280;51042;49.696;10.808;2023-04-28T06:55:42;98163.28;;;10.16;100.00
64080;BME280;51042;49.696;10.808;2023-04-28T06:58:07;98163.13;;;10.36;100.00
64080;BME280;51042;49.696;10.808;2023-04-28T07:00:33;98156.84;;;10.60;100.00
64080;BME280;51042;49.696;10.808;2023-04-28T07:02:59;98152.56;;;10.72;100.00
64080;BME280;51042;49.696;10.808;2023-04-28T07:05:25;98149.13;;;10.81;100.00
64080;BME280;51042;49.696;10.808;2023-04-28T07:07:51;98148.56;;;10.73;100.00
64080;BME280;51042;49.696;10.808;2023-04-28T07:10:16;98152.09;;;10.74;100.00
64080;BME280;51042;49.696;10.808;2023-04-28T07:12:41;98155.19;;;10.63;100.00
64080;BME280;51042;49.696;10.808;2023-04-28T07:15:07;98158.63;;;10.42;100.00
64080;BME280;51042;49.696;10.808;2023-04-28T07:17:32;98161.78;;;10.40;100.00
64080;BME280;51042;49.696;10.808;2023-04-28T07:19:57;98155.88;;;10.29;100.00
64080;BME280;51042;49.696;10.808;2023-04-28T07:22:23;98156.63;;;10.17;100.00
64080;BME280;51042;49.696;10.808;2023-04-28T07:24:48;98159.78;;;10.15;100.00
64080;BME280;51042;49.696;10.808;2023-04-28T07:27:14;98171.53;;;10.16;100.00
64080;BME280;51042;49.696;10.808;2023-04-28T07:29:39;98171.78;;;10.21;100.00
64080;BME280;51042;49.696;10.808;2023-04-28T07:32:04;98170.78;;;10.28;100.00
64080;BME280;51042;49.696;10.808;2023-04-28T07:34:32;98171.56;;;10.29;100.00
64080;BME280;51042;49.696;10.808;2023-04-28T07:36:57;98168.22;;;10.08;100.00
64080;BME280;51042;49.696;10.808;2023-04-28T07:39:23;98179.19;;;10.08;100.00
64080;BME280;51042;49.696;10.808;2023-04-28T07:41:49;98185.00;;;10.10;100.00
64080;BME280;51042;49.696;10.808;2023-04-28T07:44:14;98191.41;;;10.20;100.00
64080;BME280;51042;49.696;10.808;2023-04-28T07:46:39;98194.72;;;10.28;100.00
64080;BME280;51042;49.696;10.808;2023-04-28T07:49:05;98188.22;;;10.21;100.00
64080;BME280;51042;49.696;10.808;2023-04-28T07:51:32;98195.47;;;10.28;100.00
64080;BME280;51042;49.696;10.808;2023-04-28T07:53:57;98198.78;;;10.36;100.00
64080;BME280;51042;49.696;10.808;2023-04-28T07:56:23;98199.78;;;10.42;100.00
64080;BME280;51042;49.696;10.808;2023-04-28T07:58:49;98200.63;;;10.51;100.00
64080;BME280;51042;49.696;10.808;2023-04-28T08:01:15;98205.00;;;10.49;100.00
64080;BME280;51042;49.696;10.808;2023-04-28T08:03:41;98189.88;;;10.44;100.00
64080;BME280;51042;49.696;10.808;2023-04-28T08:06:06;98189.78;;;10.35;100.00
64080;BME280;51042;49.696;10.808;2023-04-28T08:08:32;98184.28;;;10.22;100.00
64080;BME280;51042;49.696;10.808;2023-04-28T08:10:57;98183.72;;;10.28;100.00
64080;BME280;51042;49.696;10.808;2023-04-28T08:13:23;98171.34;;;10.23;100.00
64080;BME280;51042;49.696;10.808;2023-04-28T08:15:48;98174.31;;;10.29;100.00
64080;BME280;51042;49.696;10.808;2023-04-28T08:18:14;98179.63;;;10.07;100.00
64080;BME280;51042;49.696;10.808;2023-04-28T08:20:39;98165.22;;;9.90;100.00
64080;BME280;51042;49.696;10.808;2023-04-28T08:23:05;98159.09;;;9.86;100.00
64080;BME280;51042;49.696;10.808;2023-04-28T08:25:31;98150.75;;;9.77;100.00
64080;BME280;51042;49.696;10.808;2023-04-28T08:27:56;98153.22;;;9.71;100.00
64080;BME280;51042;49.696;10.808;2023-04-28T08:30:22;98142.50;;;9.64;100.00
64080;BME280;51042;49.696;10.808;2023-04-28T08:32:48;98136.72;;;9.75;100.00
64080;BME280;51042;49.696;10.808;2023-04-28T08:35:13;98134.50;;;9.70;100.00
64080;BME280;51042;49.696;10.808;2023-04-28T08:37:39;98120.63;;;9.77;100.00
64080;BME280;51042;49.696;10.808;2023-04-28T08:40:05;98137.47;;;9.75;100.00
64080;BME280;51042;49.696;10.808;2023-04-28T08:42:33;98138.69;;;9.74;100.00
64080;BME280;51042;49.696;10.808;2023-04-28T08:44:59;98135.41;;;9.79;100.00
64080;BME280;51042;49.696;10.808;2023-04-28T08:47:30;98139.25;;;9.82;100.00
64080;BME280;51042;49.696;10.808;2023-04-28T08:50:01;98141.88;;;9.86;100.00
64080;BME280;51042;49.696;10.808;2023-04-28T08:52:27;98137.59;;;9.84;100.00
64080;BME280;51042;49.696;10.808;2023-04-28T08:54:54;98152.63;;;9.93;100.00
64080;BME280;51042;49.696;10.808;2023-04-28T08:57:22;98158.34;;;9.98;100.00
64080;BME280;51042;49.696;10.808;2023-04-28T08:59:51;98161.28;;;9.91;100.00
64080;BME280;51042;49.696;10.808;2023-04-28T09:02:16;98164.81;;;9.92;100.00
64080;BME280;51042;49.696;10.808;2023-04-28T09:04:43;98157.03;;;10.03;100.00
64080;BME280;51042;49.696;10.808;2023-04-28T09:07:11;98156.56;;;9.92;100.00
64080;BME280;51042;49.696;10.808;2023-04-28T09:09:37;98147.91;;;9.93;100.00
64080;BME280;51042;49.696;10.808;2023-04-28T09:12:04;98153.97;;;10.01;100.00
64080;BME280;51042;49.696;10.808;2023-04-28T09:14:31;98149.91;;;10.05;100.00
64080;BME280;51042;49.696;10.808;2023-04-28T09:16:58;98137.63;;;10.10;100.00
64080;BME280;51042;49.696;10.808;2023-04-28T09:19:24;98148.56;;;9.97;100.00
64080;BME280;51042;49.696;10.808;2023-04-28T09:21:58;98149.78;;;9.96;100.00
64080;BME280;51042;49.696;10.808;2023-04-28T09:24:27;98152.53;;;10.09;100.00
64080;BME280;51042;49.696;10.808;2023-04-28T09:26:55;98145.84;;;10.10;100.00
64080;BME280;51042;49.696;10.808;2023-04-28T09:29:21;98143.31;;;10.03;100.00
64080;BME280;51042;49.696;10.808;2023-04-28T09:31:46;98150.81;;;10.28;100.00
64080;BME280;51042;49.696;10.808;2023-04-28T09:34:12;98143.47;;;10.37;100.00
64080;BME280;51042;49.696;10.808;2023-04-28T09:36:37;98135.78;;;10.45;100.00
64080;BME280;51042;49.696;10.808;2023-04-28T09:39:02;98134.03;;;10.38;100.00
64080;BME280;51042;49.696;10.808;2023-04-28T09:41:34;98133.59;;;10.40;100.00
64080;BME280;51042;49.696;10.808;2023-04-28T09:44:14;98144.56;;;10.52;100.00
64080;BME280;51042;49.696;10.808;2023-04-28T09:46:43;98139.72;;;10.56;100.00
64080;BME280;51042;49.696;10.808;2023-04-28T09:49:09;98135.00;;;10.57;100.00
64080;BME280;51042;49.696;10.808;2023-04-28T09:51:35;98118.22;;;10.55;100.00
64080;BME280;51042;49.696;10.808;2023-04-28T09:54:01;98108.78;;;10.56;100.00
64080;BME280;51042;49.696;10.808;2023-04-28T09:56:28;98095.19;;;10.52;100.00
64080;BME280;51042;49.696;10.808;2023-04-28T09:58:57;98096.59;;;10.57;100.00
64080;BME280;51042;49.696;10.808;2023-04-28T10:01:27;98102.53;;;10.43;100.00
64080;BME280;51042;49.696;10.808;2023-04-28T10:03:56;98108.91;;;10.52;100.00
64080;BME280;51042;49.696;10.808;2023-04-28T10:06:24;98094.38;;;10.64;100.00
64080;BME280;51042;49.696;10.808;2023-04-28T10:08:52;98099.81;;;10.90;100.00
64080;BME280;51042;49.696;10.808;2023-04-28T10:11:21;98096.91;;;11.06;100.00
64080;BME280;51042;49.696;10.808;2023-04-28T10:13:49;98086.88;;;11.34;100.00
64080;BME280;51042;49.696;10.808;2023-04-28T10:16:15;98101.91;;;11.42;100.00
64080;BME280;51042;49.696;10.808;2023-04-28T10:18:41;98106.19;;;11.43;100.00
64080;BME280;51042;49.696;10.808;2023-04-28T10:21:07;98103.81;;;11.54;100.00
64080;BME280;51042;49.696;10.808;2023-04-28T10:26:31;98101.75;;;11.45;100.00
64080;BME280;51042;49.696;10.808;2023-04-28T10:29:24;98108.34;;;11.48;100.00
64080;BME280;51042;49.696;10.808;2023-04-28T10:32:35;98104.19;;;11.65;100.00
64080;BME280;51042;49.696;10.808;2023-04-28T10:34:42;98099.56;;;11.62;100.00
64080;BME280;51042;49.696;10.808;2023-04-28T10:37:08;98103.81;;;11.54;100.00
64080;BME280;51042;49.696;10.808;2023-04-28T10:39:33;98100.72;;;11.52;100.00
64080;BME280;51042;49.696;10.808;2023-04-28T10:41:59;98098.69;;;11.65;100.00
64080;BME280;51042;49.696;10.808;2023-04-28T10:47:02;98094.66;;;11.57;100.00
64080;BME280;51042;49.696;10.808;2023-04-28T11:00:41;98110.56;;;12.15;100.00
64080;BME280;51042;49.696;10.808;2023-04-28T11:06:20;98117.59;;;12.16;100.00
64080;BME280;51042;49.696;10.808;2023-04-28T11:08:57;98111.13;;;12.01;100.00
64080;BME280;51042;49.696;10.808;2023-04-28T11:11:30;98103.72;;;11.89;100.00
64080;BME280;51042;49.696;10.808;2023-04-28T11:16:49;98096.47;;;12.44;100.00
64080;BME280;51042;49.696;10.808;2023-04-28T11:19:25;98100.47;;;12.70;100.00
64080;BME280;51042;49.696;10.808;2023-04-28T11:21:53;98101.72;;;12.87;100.00
64080;BME280;51042;49.696;10.808;2023-04-28T11:24:20;98097.13;;;12.93;100.00
64080;BME280;51042;49.696;10.808;2023-04-28T11:26:47;98089.94;;;13.05;100.00
64080;BME280;51042;49.696;10.808;2023-04-28T11:29:12;98089.97;;;13.41;100.00
64080;BME280;51042;49.696;10.808;2023-04-28T11:31:39;98088.34;;;13.86;100.00
64080;BME280;51042;49.696;10.808;2023-04-28T11:34:07;98093.28;;;14.15;100.00
64080;BME280;51042;49.696;10.808;2023-04-28T11:36:40;98099.00;;;14.44;100.00
64080;BME280;51042;49.696;10.808;2023-04-28T11:39:10;98105.13;;;14.48;100.00
64080;BME280;51042;49.696;10.808;2023-04-28T11:41:37;98093.28;;;14.57;100.00
64080;BME280;51042;49.696;10.808;2023-04-28T11:46:36;98095.72;;;13.80;100.00
64080;BME280;51042;49.696;10.808;2023-04-28T11:49:10;98095.59;;;13.74;100.00
64080;BME280;51042;49.696;10.808;2023-04-28T11:51:36;98092.84;;;14.07;100.00
64080;BME280;51042;49.696;10.808;2023-04-28T11:54:03;98092.38;;;14.18;100.00
64080;BME280;51042;49.696;10.808;2023-04-28T11:56:35;98097.91;;;14.18;100.00
64080;BME280;51042;49.696;10.808;2023-04-28T11:59:05;98096.09;;;14.06;100.00
64080;BME280;51042;49.696;10.808;2023-04-28T12:01:33;98088.28;;;14.04;100.00
64080;BME280;51042;49.696;10.808;2023-04-28T12:04:01;98086.84;;;14.18;100.00
64080;BME280;51042;49.696;10.808;2023-04-28T12:06:27;98091.06;;;14.37;100.00
64080;BME280;51042;49.696;10.808;2023-04-28T12:08:53;98088.63;;;14.63;100.00
64080;BME280;51042;49.696;10.808;2023-04-28T12:11:19;98082.13;;;14.75;100.00
64080;BME280;51042;49.696;10.808;2023-04-28T12:14:01;98080.88;;;15.00;100.00
64080;BME280;51042;49.696;10.808;2023-04-28T12:16:40;98081.63;;;15.00;100.00
64080;BME280;51042;49.696;10.808;2023-04-28T12:19:08;98080.69;;;14.56;100.00
64080;BME280;51042;49.696;10.808;2023-04-28T12:21:35;98078.50;;;14.60;100.00
64080;BME280;51042;49.696;10.808;2023-04-28T12:24:20;98071.53;;;14.74;100.00
64080;BME280;51042;49.696;10.808;2023-04-28T12:26:47;98074.41;;;14.55;100.00
64080;BME280;51042;49.696;10.808;2023-04-28T12:32:04;98053.63;;;14.69;100.00
64080;BME280;51042;49.696;10.808;2023-04-28T12:34:30;98062.03;;;15.13;100.00
64080;BME280;51042;49.696;10.808;2023-04-28T12:36:57;98060.94;;;15.93;100.00
64080;BME280;51042;49.696;10.808;2023-04-28T12:39:22;98071.84;;;16.31;100.00
64080;BME280;51042;49.696;10.808;2023-04-28T12:41:48;98074.03;;;16.62;100.00
64080;BME280;51042;49.696;10.808;2023-04-28T12:44:14;98072.47;;;16.76;100.00
64080;BME280;51042;49.696;10.808;2023-04-28T12:46:40;98072.00;;;16.98;100.00
64080;BME280;51042;49.696;10.808;2023-04-28T12:49:05;98064.63;;;17.15;100.00
64080;BME280;51042;49.696;10.808;2023-04-28T12:51:31;98066.63;;;17.14;100.00
64080;BME280;51042;49.696;10.808;2023-04-28T12:53:58;98068.94;;;16.96;100.00
64080;BME280;51042;49.696;10.808;2023-04-28T12:56:24;98070.69;;;16.73;100.00
64080;BME280;51042;49.696;10.808;2023-04-28T12:58:49;98074.25;;;16.24;100.00
64080;BME280;51042;49.696;10.808;2023-04-28T13:01:15;98070.84;;;15.85;100.00
64080;BME280;51042;49.696;10.808;2023-04-28T13:03:40;98081.28;;;15.90;100.00
64080;BME280;51042;49.696;10.808;2023-04-28T13:06:07;98079.94;;;15.71;100.00
64080;BME280;51042;49.696;10.808;2023-04-28T13:08:34;98082.13;;;15.52;100.00
64080;BME280;51042;49.696;10.808;2023-04-28T13:11:00;98067.66;;;15.33;100.00
64080;BME280;51042;49.696;10.808;2023-04-28T13:13:28;98075.97;;;15.33;100.00